createdAt,value
2022-09-24T00:01:18.290Z,100551.44
2022-09-24T00:03:50.521Z,100553.81
2022-09-24T00:06:20.893Z,100516.28
2022-09-24T00:08:50.001Z,100546.84
2022-09-24T00:11:18.024Z,100547.16
2022-09-24T00:13:44.517Z,100546.75
2022-09-24T00:16:13.067Z,100499.31
2022-09-24T00:18:40.214Z,100545.97
2022-09-24T00:21:15.427Z,100504.56
2022-09-24T00:23:42.335Z,100543.69
2022-09-24T00:26:29.594Z,100505.25
2022-09-24T00:28:56.469Z,100541.47
2022-09-24T00:31:23.425Z,100545.72
2022-09-24T00:33:52.260Z,100506.53
2022-09-24T00:36:20.726Z,100498.41
2022-09-24T00:38:52.024Z,100501.94
2022-09-24T00:41:20.314Z,100535.16
2022-09-24T00:43:48.460Z,100522.41
2022-09-24T00:46:20.194Z,100542.53
2022-09-24T00:48:47.715Z,100514.84
2022-09-24T00:51:16.979Z,100509.66
2022-09-24T00:53:44.830Z,100524.31
2022-09-24T00:56:15.537Z,100520.81
2022-09-24T00:58:45.831Z,100519.66
2022-09-24T01:01:12.428Z,100527.50
2022-09-24T01:03:40.943Z,100530.06
2022-09-24T01:06:08.637Z,100533.06
2022-09-24T01:08:35.051Z,100543.19
2022-09-24T01:11:25.331Z,100544.59
2022-09-24T01:14:32.910Z,100541.16
2022-09-24T01:17:24.397Z,100538.84
2022-09-24T01:20:09.667Z,100539.47
2022-09-24T01:22:36.054Z,100540.16
2022-09-24T01:25:13.315Z,100543.03
2022-09-24T01:28:09.188Z,100538.44
2022-09-24T01:30:38.242Z,100518.66
2022-09-24T01:33:08.645Z,100508.16
2022-09-24T01:35:37.677Z,100540.13
2022-09-24T01:38:08.725Z,100505.34
2022-09-24T01:40:37.235Z,100530.56
2022-09-24T01:43:05.339Z,100512.47
2022-09-24T01:45:32.418Z,100530.53
2022-09-24T01:48:02.941Z,100514.13
2022-09-24T01:50:33.630Z,100517.31
2022-09-24T01:53:03.871Z,100527.03
2022-09-24T01:55:35.067Z,100518.13
2022-09-24T01:58:11.790Z,100521.84
2022-09-24T02:00:40.195Z,100517.41
2022-09-24T02:03:22.778Z,100487.03
2022-09-24T02:05:59.451Z,100519.09
2022-09-24T02:08:56.133Z,100515.91
2022-09-24T02:11:24.263Z,100514.41
2022-09-24T02:14:13.418Z,100516.75
2022-09-24T02:16:45.438Z,100484.41
2022-09-24T02:19:14.532Z,100518.81
2022-09-24T02:21:43.233Z,100511.25
2022-09-24T02:24:17.176Z,100515.47
2022-09-24T02:26:43.923Z,100514.75
2022-09-24T02:29:11.062Z,100516.06
2022-09-24T02:31:40.653Z,100492.63
2022-09-24T02:34:22.620Z,100502.34
2022-09-24T02:36:55.422Z,100505.91
2022-09-24T02:39:22.061Z,100504.69
2022-09-24T02:41:49.534Z,100482.91
2022-09-24T02:44:16.935Z,100489.44
2022-09-24T02:46:44.401Z,100389.38
2022-09-24T02:49:11.065Z,100451.75
2022-09-24T02:51:37.642Z,100473.88
2022-09-24T02:54:04.631Z,100490.34
2022-09-24T02:56:31.463Z,100496.19
2022-09-24T02:58:58.823Z,100490.28
2022-09-24T03:01:25.766Z,100486.50
2022-09-24T03:03:52.300Z,100470.59
2022-09-24T03:06:19.160Z,100507.00
2022-09-24T03:08:45.774Z,100505.63
2022-09-24T03:11:17.837Z,100487.47
2022-09-24T03:13:45.165Z,100493.03
2022-09-24T03:16:11.922Z,100495.47
2022-09-24T03:18:38.466Z,100497.09
2022-09-24T03:21:08.511Z,100495.25
2022-09-24T03:23:35.841Z,100484.78
2022-09-24T03:26:02.878Z,100470.38
2022-09-24T03:28:29.502Z,100462.66
2022-09-24T03:31:02.521Z,100499.25
2022-09-24T03:33:49.280Z,100448.44
2022-09-24T03:36:22.114Z,100489.94
2022-09-24T03:38:50.571Z,100450.91
2022-09-24T03:41:17.649Z,100491.94
2022-09-24T03:43:44.488Z,100473.56
2022-09-24T03:46:12.534Z,100490.19
2022-09-24T03:48:40.707Z,100485.81
2022-09-24T03:51:12.725Z,100488.59
2022-09-24T03:53:39.672Z,100484.13
2022-09-24T03:56:07.278Z,100471.16
2022-09-24T03:58:37.877Z,100421.47
2022-09-24T04:01:06.053Z,100474.56
2022-09-24T04:03:32.762Z,100439.53
2022-09-24T04:05:59.277Z,100472.41
2022-09-24T04:08:26.096Z,100472.94
2022-09-24T04:10:52.774Z,100471.13
2022-09-24T04:13:19.602Z,100451.13
2022-09-24T04:15:46.584Z,100464.72
2022-09-24T04:18:13.176Z,100461.28
2022-09-24T04:20:39.776Z,100456.13
2022-09-24T04:23:06.252Z,100457.69
2022-09-24T04:25:33.138Z,100423.38
2022-09-24T04:28:05.013Z,100452.28
2022-09-24T04:30:33.029Z,100450.34
2022-09-24T04:33:03.079Z,100442.81
2022-09-24T04:35:30.987Z,100455.00
2022-09-24T04:37:58.997Z,100464.13
2022-09-24T04:40:26.531Z,100457.50
2022-09-24T04:42:53.458Z,100464.22
2022-09-24T04:45:20.916Z,100420.16
2022-09-24T04:47:52.528Z,100459.56
2022-09-24T04:50:20.189Z,100451.75
2022-09-24T04:52:46.771Z,100444.28
2022-09-24T04:55:13.504Z,100464.28
2022-09-24T04:57:41.200Z,100447.63
2022-09-24T05:00:09.679Z,100455.03
2022-09-24T05:02:36.227Z,100413.75
2022-09-24T05:05:03.534Z,100456.75
2022-09-24T05:07:30.066Z,100447.44
2022-09-24T05:09:57.607Z,100369.59
2022-09-24T05:12:24.109Z,100432.34
2022-09-24T05:14:50.744Z,100413.69
2022-09-24T05:17:17.477Z,100442.81
2022-09-24T05:19:44.224Z,100431.72
2022-09-24T05:22:11.217Z,100420.78
2022-09-24T05:24:37.727Z,100460.25
2022-09-24T05:27:10.255Z,100461.47
2022-09-24T05:29:41.288Z,100451.13
2022-09-24T05:32:12.945Z,100458.25
2022-09-24T05:34:41.366Z,100411.03
2022-09-24T05:37:09.538Z,100426.66
2022-09-24T05:39:36.071Z,100454.00
2022-09-24T05:42:05.444Z,100466.50
2022-09-24T05:44:32.192Z,100466.03
2022-09-24T05:46:59.446Z,100424.34
2022-09-24T05:49:26.297Z,100432.28
2022-09-24T05:51:52.755Z,100429.88
2022-09-24T05:54:19.727Z,100420.03
2022-09-24T05:56:46.654Z,100441.28
2022-09-24T05:59:13.355Z,100430.47
2022-09-24T06:01:40.229Z,100455.69
2022-09-24T06:04:09.202Z,100459.34
2022-09-24T06:06:35.909Z,100452.84
2022-09-24T06:09:02.588Z,100460.91
2022-09-24T06:11:39.795Z,100455.59
2022-09-24T06:14:06.845Z,100451.91
2022-09-24T06:16:34.198Z,100429.81
2022-09-24T06:19:01.001Z,100450.13
2022-09-24T06:21:28.221Z,100425.22
2022-09-24T06:23:54.961Z,100457.28
2022-09-24T06:26:21.751Z,100418.91
2022-09-24T06:28:48.295Z,100458.16
2022-09-24T06:31:14.957Z,100457.44
2022-09-24T06:33:42.464Z,100456.63
2022-09-24T06:36:09.134Z,100435.00
2022-09-24T06:38:35.745Z,100458.31
2022-09-24T06:41:05.024Z,100466.22
2022-09-24T06:43:32.343Z,100453.63
2022-09-24T06:45:59.718Z,100455.47
2022-09-24T06:48:27.132Z,100446.75
2022-09-24T06:50:54.756Z,100465.72
2022-09-24T06:53:21.546Z,100465.38
2022-09-24T06:55:49.088Z,100408.03
2022-09-24T06:58:20.925Z,100459.69
2022-09-24T07:00:55.358Z,100460.16
2022-09-24T07:03:22.290Z,100459.50
2022-09-24T07:05:48.754Z,100418.59
2022-09-24T07:08:15.435Z,100421.63
2022-09-24T07:10:43.306Z,100437.88
2022-09-24T07:13:09.974Z,100469.88
2022-09-24T07:15:36.514Z,100469.72
2022-09-24T07:18:03.604Z,100418.91
2022-09-24T07:20:30.280Z,100481.56
2022-09-24T07:22:56.852Z,100457.28
2022-09-24T07:25:23.360Z,100479.56
2022-09-24T07:27:50.119Z,100483.25
2022-09-24T07:30:17.300Z,100475.31
2022-09-24T07:32:43.911Z,100487.06
2022-09-24T07:35:10.450Z,100497.56
2022-09-24T07:37:37.134Z,100446.25
2022-09-24T07:40:03.977Z,100493.13
2022-09-24T07:42:30.496Z,100465.97
2022-09-24T07:44:57.126Z,100505.78
2022-09-24T07:47:23.727Z,100493.09
2022-09-24T07:49:50.302Z,100494.16
2022-09-24T07:52:16.785Z,100511.63
2022-09-24T07:54:43.275Z,100515.00
2022-09-24T07:57:14.680Z,100479.97
2022-09-24T07:59:41.684Z,100515.50
2022-09-24T08:02:16.613Z,100510.44
2022-09-24T08:04:44.029Z,100477.91
2022-09-24T08:07:12.149Z,100516.78
2022-09-24T08:09:39.195Z,100516.13
2022-09-24T08:12:06.388Z,100512.06
2022-09-24T08:14:32.981Z,100514.66
2022-09-24T08:16:59.552Z,100506.75
2022-09-24T08:19:26.006Z,100467.16
2022-09-24T08:21:53.816Z,100515.75
2022-09-24T08:24:20.266Z,100518.16
2022-09-24T08:26:46.729Z,100485.41
2022-09-24T08:29:13.252Z,100504.09
2022-09-24T08:31:41.439Z,100495.94
2022-09-24T08:34:08.142Z,100494.44
2022-09-24T08:36:35.941Z,100508.50
2022-09-24T08:39:04.120Z,100513.06
2022-09-24T08:41:39.904Z,100514.91
2022-09-24T08:44:37.750Z,100524.38
2022-09-24T08:47:23.281Z,100519.88
2022-09-24T08:50:17.436Z,100519.09
2022-09-24T08:52:43.959Z,100526.28
2022-09-24T08:55:15.383Z,100526.69
2022-09-24T08:57:55.646Z,100523.75
2022-09-24T09:00:22.130Z,100506.91
2022-09-24T09:03:00.992Z,100524.72
2022-09-24T09:05:52.945Z,100525.22
2022-09-24T09:08:54.591Z,100536.56
2022-09-24T09:11:15.376Z,100524.66
2022-09-24T09:13:57.558Z,100497.19
2022-09-24T09:16:35.863Z,100530.06
2022-09-24T09:19:06.743Z,100523.38
2022-09-24T09:21:46.204Z,100515.41
2022-09-24T09:24:17.836Z,100501.34
2022-09-24T09:26:50.952Z,100531.22
2022-09-24T09:29:17.574Z,100536.72
2022-09-24T09:31:56.329Z,100508.69
2022-09-24T09:34:48.640Z,100538.44
2022-09-24T09:37:37.299Z,100536.97
2022-09-24T09:40:31.577Z,100536.94
2022-09-24T09:43:03.971Z,100540.25
2022-09-24T09:46:01.621Z,100535.47
2022-09-24T09:48:47.825Z,100471.22
2022-09-24T09:51:22.706Z,100537.19
2022-09-24T09:54:06.509Z,100537.75
2022-09-24T09:56:41.484Z,100533.19
2022-09-24T09:59:11.051Z,100528.09
2022-09-24T10:01:42.480Z,100530.03
2022-09-24T10:04:21.412Z,100530.63
2022-09-24T10:06:47.946Z,100495.84
2022-09-24T10:09:20.680Z,100498.56
2022-09-24T10:11:47.756Z,100537.06
2022-09-24T10:14:16.908Z,100537.19
2022-09-24T10:16:46.011Z,100529.00
2022-09-24T10:19:20.774Z,100528.81
2022-09-24T10:21:47.356Z,100524.81
2022-09-24T10:24:20.264Z,100524.56
2022-09-24T10:26:47.762Z,100508.69
2022-09-24T10:29:39.959Z,100526.97
2022-09-24T10:32:07.388Z,100525.78
2022-09-24T10:34:33.943Z,100477.00
2022-09-24T10:37:14.898Z,100484.75
2022-09-24T10:39:41.603Z,100480.56
2022-09-24T10:42:25.169Z,100502.59
2022-09-24T10:44:55.653Z,100521.53
2022-09-24T10:47:34.811Z,100522.28
2022-09-24T10:50:22.097Z,100495.84
2022-09-24T10:53:00.676Z,100531.47
2022-09-24T10:55:37.128Z,100513.50
2022-09-24T10:58:15.776Z,100522.94
2022-09-24T11:00:52.184Z,100524.59
2022-09-24T11:03:27.430Z,100528.75
2022-09-24T11:06:00.860Z,100529.09
2022-09-24T11:08:52.063Z,100528.53
2022-09-24T11:11:34.297Z,100537.03
2022-09-24T11:14:39.571Z,100529.09
2022-09-24T11:17:24.462Z,100524.19
2022-09-24T11:19:56.834Z,100521.69
2022-09-24T11:22:33.911Z,100517.53
2022-09-24T11:25:22.510Z,100521.03
2022-09-24T11:27:52.107Z,100527.03
2022-09-24T11:30:24.895Z,100530.69
2022-09-24T11:33:29.890Z,100526.88
2022-09-24T11:36:20.946Z,100523.03
2022-09-24T11:39:05.467Z,100517.16
2022-09-24T11:41:44.718Z,100524.56
2022-09-24T11:44:27.103Z,100525.03
2022-09-24T11:47:09.947Z,100526.38
2022-09-24T11:49:46.293Z,100504.63
2022-09-24T11:52:31.813Z,100525.84
2022-09-24T11:55:18.163Z,100521.50
2022-09-24T11:57:56.843Z,100518.47
2022-09-24T12:00:24.102Z,100516.84
2022-09-24T12:03:04.675Z,100477.91
2022-09-24T12:05:41.625Z,100518.41
2022-09-24T12:08:30.206Z,100521.66
2022-09-24T12:11:15.486Z,100518.00
2022-09-24T12:13:46.972Z,100526.66
2022-09-24T12:16:19.586Z,100517.81
2022-09-24T12:19:01.455Z,100514.88
2022-09-24T12:21:33.501Z,100510.63
2022-09-24T12:24:09.419Z,100526.97
2022-09-24T12:26:37.784Z,100497.81
2022-09-24T12:29:41.265Z,100522.06
2022-09-24T12:32:53.619Z,100516.47
2022-09-24T12:35:26.053Z,100519.81
2022-09-24T12:37:58.101Z,100515.97
2022-09-24T12:40:40.013Z,100511.06
2022-09-24T12:43:25.131Z,100510.88
2022-09-24T12:46:06.370Z,100513.88
2022-09-24T12:48:37.761Z,100514.31
2022-09-24T12:51:06.881Z,100515.34
2022-09-24T12:53:39.036Z,100517.22
2022-09-24T12:56:06.695Z,100499.56
2022-09-24T12:58:41.061Z,100514.59
2022-09-24T13:01:22.998Z,100517.09
2022-09-24T13:04:05.724Z,100513.97
2022-09-24T13:06:37.292Z,100513.88
2022-09-24T13:09:26.018Z,100511.84
2022-09-24T13:12:18.195Z,100514.25
2022-09-24T13:15:06.663Z,100518.88
2022-09-24T13:17:34.765Z,100514.88
2022-09-24T13:20:07.171Z,100513.06
2022-09-24T13:22:36.516Z,100478.19
2022-09-24T13:25:09.165Z,100520.38
2022-09-24T13:27:41.559Z,100522.94
2022-09-24T13:30:23.163Z,100525.25
2022-09-24T13:33:04.529Z,100494.25
2022-09-24T13:35:35.106Z,100496.56
2022-09-24T13:38:20.342Z,100520.63
2022-09-24T13:40:52.583Z,100482.16
2022-09-24T13:43:37.246Z,100517.31
2022-09-24T13:46:07.772Z,100503.91
2022-09-24T13:48:38.091Z,100523.19
2022-09-24T13:51:07.268Z,100502.31
2022-09-24T13:53:54.581Z,100493.19
2022-09-24T13:56:21.356Z,100492.28
2022-09-24T13:58:51.127Z,100514.56
2022-09-24T14:01:24.582Z,100526.16
2022-09-24T14:03:56.574Z,100524.47
2022-09-24T14:06:38.594Z,100528.44
2022-09-24T14:09:28.034Z,100520.63
2022-09-24T14:11:58.039Z,100518.31
2022-09-24T14:14:27.823Z,100497.56
2022-09-24T14:17:06.202Z,100529.56
2022-09-24T14:19:34.585Z,100522.13
2022-09-24T14:22:02.043Z,100490.19
2022-09-24T14:24:35.715Z,100521.34
2022-09-24T14:27:05.809Z,100522.47
2022-09-24T14:30:05.052Z,100522.81
2022-09-24T14:32:33.950Z,100526.22
2022-09-24T14:35:09.403Z,100505.59
2022-09-24T14:37:38.461Z,100524.59
2022-09-24T14:40:14.043Z,100487.84
2022-09-24T14:42:46.735Z,100522.84
2022-09-24T14:45:25.980Z,100505.94
2022-09-24T14:48:03.692Z,100527.34
2022-09-24T14:50:30.216Z,100528.22
2022-09-24T14:52:57.407Z,100492.91
2022-09-24T14:55:37.254Z,100487.88
2022-09-24T14:58:04.075Z,100499.72
2022-09-24T15:00:37.838Z,100524.53
2022-09-24T15:03:07.883Z,100518.31
2022-09-24T15:05:34.939Z,100523.16
2022-09-24T15:08:24.747Z,100524.28
2022-09-24T15:10:55.638Z,100483.22
2022-09-24T15:13:32.336Z,100524.00
2022-09-24T15:16:15.150Z,100518.50
2022-09-24T15:18:41.715Z,100493.97
2022-09-24T15:21:11.000Z,100520.25
2022-09-24T15:23:37.591Z,100525.78
2022-09-24T15:26:04.428Z,100522.53
2022-09-24T15:28:31.329Z,100529.84
2022-09-24T15:30:57.866Z,100529.47
2022-09-24T15:33:24.440Z,100530.59
2022-09-24T15:35:51.118Z,100512.56
2022-09-24T15:38:19.003Z,100523.53
2022-09-24T15:40:46.127Z,100525.06
2022-09-24T15:43:18.528Z,100529.53
2022-09-24T15:45:45.137Z,100519.09
2022-09-24T15:48:11.677Z,100503.13
2022-09-24T15:50:40.616Z,100508.72
2022-09-24T15:53:08.061Z,100514.47
2022-09-24T15:55:36.271Z,100503.91
2022-09-24T15:58:02.809Z,100525.25
2022-09-24T16:00:29.326Z,100493.41
2022-09-24T16:02:57.384Z,100523.25
2022-09-24T16:05:24.371Z,100537.06
2022-09-24T16:07:51.018Z,100517.31
2022-09-24T16:10:17.942Z,100520.16
2022-09-24T16:12:44.645Z,100519.19
2022-09-24T16:15:15.843Z,100549.34
2022-09-24T16:17:43.237Z,100535.25
2022-09-24T16:20:10.459Z,100536.22
2022-09-24T16:22:37.029Z,100520.50
2022-09-24T16:25:04.859Z,100539.63
2022-09-24T16:27:31.506Z,100544.19
2022-09-24T16:29:58.189Z,100549.34
2022-09-24T16:32:24.850Z,100555.22
2022-09-24T16:34:54.714Z,100538.13
2022-09-24T16:37:21.379Z,100499.38
2022-09-24T16:39:48.152Z,100518.50
2022-09-24T16:42:14.727Z,100540.97
2022-09-24T16:44:41.207Z,100478.59
2022-09-24T16:47:07.752Z,100515.81
2022-09-24T16:49:34.825Z,100522.69
2022-09-24T16:52:01.645Z,100542.50
2022-09-24T16:54:29.588Z,100539.44
2022-09-24T16:56:57.483Z,100541.44
2022-09-24T16:59:24.014Z,100539.97
2022-09-24T17:01:50.715Z,100527.56
2022-09-24T17:04:17.305Z,100539.97
2022-09-24T17:06:45.090Z,100530.56
2022-09-24T17:09:30.459Z,100537.44
2022-09-24T17:11:57.193Z,100503.75
2022-09-24T17:14:24.315Z,100541.81
2022-09-24T17:16:50.907Z,100530.53
2022-09-24T17:19:18.412Z,100541.13
2022-09-24T17:21:50.370Z,100491.19
2022-09-24T17:24:21.395Z,100545.53
2022-09-24T17:26:48.721Z,100554.66
2022-09-24T17:29:15.260Z,100559.22
2022-09-24T17:31:41.836Z,100557.25
2022-09-24T17:34:12.454Z,100541.03
2022-09-24T17:36:38.972Z,100527.59
2022-09-24T17:39:06.376Z,100561.72
2022-09-24T17:41:33.847Z,100518.91
2022-09-24T17:44:00.726Z,100564.59
2022-09-24T17:46:29.123Z,100566.44
2022-09-24T17:48:58.026Z,100569.00
2022-09-24T17:51:25.905Z,100552.31
2022-09-24T17:53:54.094Z,100569.59
2022-09-24T17:56:22.961Z,100561.59
2022-09-24T17:58:50.279Z,100547.19
2022-09-24T18:01:19.839Z,100562.75
2022-09-24T18:03:46.716Z,100568.97
2022-09-24T18:06:14.869Z,100547.50
2022-09-24T18:08:45.478Z,100575.69
2022-09-24T18:11:18.443Z,100564.59
2022-09-24T18:13:45.399Z,100564.44
2022-09-24T18:16:14.988Z,100572.50
2022-09-24T18:18:42.936Z,100572.34
2022-09-24T18:21:11.808Z,100571.16
2022-09-24T18:23:39.221Z,100574.84
2022-09-24T18:26:20.445Z,100585.22
2022-09-24T18:28:52.853Z,100578.19
2022-09-24T18:31:21.154Z,100570.63
2022-09-24T18:33:49.487Z,100583.22
2022-09-24T18:36:18.289Z,100586.91
2022-09-24T18:38:45.149Z,100583.75
2022-09-24T18:41:14.618Z,100537.91
2022-09-24T18:43:42.149Z,100579.84
2022-09-24T18:46:11.385Z,100542.63
2022-09-24T18:48:39.707Z,100592.75
2022-09-24T18:51:07.197Z,100578.00
2022-09-24T18:53:35.294Z,100592.44
2022-09-24T18:56:06.617Z,100570.91
2022-09-24T18:58:33.209Z,100596.56
2022-09-24T19:01:04.629Z,100598.91
2022-09-24T19:03:31.672Z,100596.94
2022-09-24T19:06:04.199Z,100588.22
2022-09-24T19:08:32.134Z,100594.44
2022-09-24T19:11:04.740Z,100597.78
2022-09-24T19:13:31.924Z,100600.47
2022-09-24T19:16:03.367Z,100601.66
2022-09-24T19:18:29.953Z,100602.69
2022-09-24T19:20:56.984Z,100605.69
2022-09-24T19:23:23.760Z,100587.03
2022-09-24T19:25:50.280Z,100591.88
2022-09-24T19:28:17.056Z,100564.91
2022-09-24T19:30:45.315Z,100599.53
2022-09-24T19:33:15.817Z,100613.38
2022-09-24T19:35:47.162Z,100597.88
2022-09-24T19:38:16.601Z,100592.25
2022-09-24T19:40:43.300Z,100611.69
2022-09-24T19:43:09.935Z,100577.38
2022-09-24T19:45:37.207Z,100613.97
2022-09-24T19:48:04.052Z,100615.00
2022-09-24T19:50:34.273Z,100595.19
2022-09-24T19:53:00.760Z,100613.44
2022-09-24T19:55:28.790Z,100617.56
2022-09-24T19:57:56.349Z,100586.97
2022-09-24T20:00:24.961Z,100605.69
2022-09-24T20:02:52.387Z,100597.34
2022-09-24T20:05:18.922Z,100605.78
2022-09-24T20:07:46.400Z,100576.88
2022-09-24T20:10:15.787Z,100527.38
2022-09-24T20:12:46.487Z,100578.09
2022-09-24T20:15:13.301Z,100575.41
2022-09-24T20:17:39.788Z,100564.81
2022-09-24T20:20:07.163Z,100604.47
2022-09-24T20:22:33.685Z,100601.59
2022-09-24T20:25:00.249Z,100583.03
2022-09-24T20:27:45.827Z,100607.53
2022-09-24T20:30:12.952Z,100619.06
2022-09-24T20:32:44.152Z,100610.72
2022-09-24T20:35:11.090Z,100577.00
2022-09-24T20:37:38.334Z,100597.34
2022-09-24T20:40:08.925Z,100613.97
2022-09-24T20:42:38.823Z,100594.09
2022-09-24T20:45:09.001Z,100607.84
2022-09-24T20:47:37.968Z,100610.16
2022-09-24T20:50:05.068Z,100625.53
2022-09-24T20:52:34.601Z,100609.22
2022-09-24T20:55:01.174Z,100543.94
2022-09-24T20:57:28.808Z,100623.06
2022-09-24T20:59:56.252Z,100598.00
2022-09-24T21:02:23.612Z,100624.56
2022-09-24T21:04:50.171Z,100587.00
2022-09-24T21:07:16.693Z,100626.47
2022-09-24T21:09:43.168Z,100587.09
2022-09-24T21:12:09.715Z,100626.44
2022-09-24T21:14:36.247Z,100607.34
2022-09-24T21:17:03.633Z,100628.69
2022-09-24T21:19:32.382Z,100575.72
2022-09-24T21:21:59.759Z,100622.75
2022-09-24T21:24:31.287Z,100614.38
2022-09-24T21:26:59.326Z,100631.66
2022-09-24T21:29:26.059Z,100631.34
2022-09-24T21:31:52.472Z,100632.19
2022-09-24T21:34:20.899Z,100634.22
2022-09-24T21:36:47.499Z,100636.72
2022-09-24T21:39:14.431Z,100642.63
2022-09-24T21:41:41.294Z,100630.84
2022-09-24T21:44:10.110Z,100618.75
2022-09-24T21:46:37.016Z,100652.50
2022-09-24T21:49:06.161Z,100647.59
2022-09-24T21:51:32.612Z,100626.44
2022-09-24T21:54:04.237Z,100650.28
2022-09-24T21:56:32.095Z,100644.91
2022-09-24T21:58:58.876Z,100644.94
2022-09-24T22:01:28.046Z,100651.28
2022-09-24T22:03:56.244Z,100646.91
2022-09-24T22:06:28.015Z,100642.53
2022-09-24T22:08:57.749Z,100649.81
2022-09-24T22:11:27.350Z,100629.31
2022-09-24T22:13:55.128Z,100647.44
2022-09-24T22:16:22.720Z,100642.38
2022-09-24T22:18:49.227Z,100654.81
2022-09-24T22:21:15.998Z,100649.81
2022-09-24T22:23:42.523Z,100643.09
2022-09-24T22:26:10.336Z,100653.66
2022-09-24T22:28:37.962Z,100616.41
2022-09-24T22:31:08.198Z,100639.94
2022-09-24T22:33:54.060Z,100623.63
2022-09-24T22:36:20.775Z,100635.91
2022-09-24T22:38:50.046Z,100601.00
2022-09-24T22:41:16.602Z,100641.94
2022-09-24T22:43:43.540Z,100613.25
2022-09-24T22:46:12.291Z,100644.25
2022-09-24T22:48:39.799Z,100619.59
2022-09-24T22:51:07.099Z,100642.38
2022-09-24T22:53:35.144Z,100642.22
2022-09-24T22:56:14.028Z,100644.44
2022-09-24T22:58:42.045Z,100603.31
2022-09-24T23:01:11.547Z,100605.28
2022-09-24T23:03:38.126Z,100604.31
2022-09-24T23:06:06.104Z,100641.22
2022-09-24T23:08:33.871Z,100619.69
2022-09-24T23:11:11.147Z,100624.38
2022-09-24T23:13:38.730Z,100641.03
2022-09-24T23:16:17.056Z,100640.03
2022-09-24T23:18:45.544Z,100642.34
2022-09-24T23:21:15.731Z,100645.03
2022-09-24T23:23:46.584Z,100639.88
2022-09-24T23:26:16.811Z,100644.09
2022-09-24T23:28:44.975Z,100636.56
2022-09-24T23:31:13.638Z,100601.78
2022-09-24T23:33:41.351Z,100632.47
2022-09-24T23:36:10.381Z,100611.53
2022-09-24T23:38:37.433Z,100636.19
2022-09-24T23:41:05.250Z,100634.50
2022-09-24T23:43:31.826Z,100612.72
2022-09-24T23:45:58.397Z,100630.81
2022-09-24T23:48:25.209Z,100636.88
2022-09-24T23:50:51.905Z,100627.63
2022-09-24T23:53:19.091Z,100631.16
2022-09-24T23:55:47.062Z,100645.34
2022-09-24T23:58:15.670Z,100640.19
